sensor_id;sensor_type;location;lat;lon;timestamp;P1;durP1;ratioP1;P2;durP2;ratioP2
6513;SDS011;3290;47.716;9.070;2024-01-07T00:01:33;5.20;;;4.07;;
6513;SDS011;3290;47.716;9.070;2024-01-07T00:03:58;7.50;;;4.63;;
6513;SDS011;3290;47.716;9.070;2024-01-07T00:06:23;5.50;;;4.27;;
6513;SDS011;3290;47.716;9.070;2024-01-07T00:08:49;4.57;;;4.03;;
6513;SDS011;3290;47.716;9.070;2024-01-07T00:11:14;12.73;;;3.90;;
6513;SDS011;3290;47.716;9.070;2024-01-07T00:13:40;5.00;;;3.67;;
6513;SDS011;3290;47.716;9.070;2024-01-07T00:16:05;4.17;;;3.70;;
6513;SDS011;3290;47.716;9.070;2024-01-07T00:18:31;4.53;;;3.60;;
6513;SDS011;3290;47.716;9.070;2024-01-07T00:20:56;5.87;;;3.90;;
6513;SDS011;3290;47.716;9.070;2024-01-07T00:23:21;4.50;;;4.10;;
6513;SDS011;3290;47.716;9.070;2024-01-07T00:25:47;6.37;;;4.40;;
6513;SDS011;3290;47.716;9.070;2024-01-07T00:28:13;5.47;;;4.20;;
6513;SDS011;3290;47.716;9.070;2024-01-07T00:30:38;5.40;;;4.50;;
6513;SDS011;3290;47.716;9.070;2024-01-07T00:33:04;5.67;;;4.00;;
6513;SDS011;3290;47.716;9.070;2024-01-07T00:35:29;5.60;;;4.10;;
6513;SDS011;3290;47.716;9.070;2024-01-07T00:37:54;6.80;;;4.70;;
6513;SDS011;3290;47.716;9.070;2024-01-07T00:40:21;5.17;;;3.90;;
6513;SDS011;3290;47.716;9.070;2024-01-07T00:42:47;4.20;;;3.37;;
6513;SDS011;3290;47.716;9.070;2024-01-07T00:45:13;4.40;;;3.43;;
6513;SDS011;3290;47.716;9.070;2024-01-07T00:47:38;5.03;;;3.70;;
6513;SDS011;3290;47.716;9.070;2024-01-07T00:50:03;4.00;;;3.60;;
6513;SDS011;3290;47.716;9.070;2024-01-07T00:52:29;4.60;;;3.63;;
6513;SDS011;3290;47.716;9.070;2024-01-07T00:54:54;5.83;;;4.47;;
6513;SDS011;3290;47.716;9.070;2024-01-07T00:57:20;5.67;;;4.17;;
6513;SDS011;3290;47.716;9.070;2024-01-07T00:59:45;5.50;;;3.83;;
6513;SDS011;3290;47.716;9.070;2024-01-07T01:02:10;6.40;;;4.70;;
6513;SDS011;3290;47.716;9.070;2024-01-07T01:04:38;5.90;;;4.63;;
6513;SDS011;3290;47.716;9.070;2024-01-07T01:07:04;5.90;;;4.23;;
6513;SDS011;3290;47.716;9.070;2024-01-07T01:09:29;6.30;;;5.23;;
6513;SDS011;3290;47.716;9.070;2024-01-07T01:11:55;8.30;;;5.87;;
6513;SDS011;3290;47.716;9.070;2024-01-07T01:14:20;88.87;;;26.70;;
6513;SDS011;3290;47.716;9.070;2024-01-07T01:16:46;58.40;;;16.50;;
6513;SDS011;3290;47.716;9.070;2024-01-07T01:19:11;16.67;;;7.83;;
6513;SDS011;3290;47.716;9.070;2024-01-07T01:21:36;9.47;;;5.80;;
6513;SDS011;3290;47.716;9.070;2024-01-07T01:24:02;5.40;;;4.50;;
6513;SDS011;3290;47.716;9.070;2024-01-07T01:26:27;5.97;;;4.77;;
6513;SDS011;3290;47.716;9.070;2024-01-07T01:28:52;6.97;;;4.80;;
6513;SDS011;3290;47.716;9.070;2024-01-07T01:31:18;5.60;;;4.87;;
6513;SDS011;3290;47.716;9.070;2024-01-07T01:33:43;5.57;;;4.70;;
6513;SDS011;3290;47.716;9.070;2024-01-07T01:36:08;5.50;;;4.50;;
6513;SDS011;3290;47.716;9.070;2024-01-07T01:38:34;11.47;;;5.27;;
6513;SDS011;3290;47.716;9.070;2024-01-07T01:40:59;8.17;;;5.13;;
6513;SDS011;3290;47.716;9.070;2024-01-07T01:43:25;5.77;;;5.03;;
6513;SDS011;3290;47.716;9.070;2024-01-07T01:45:53;6.90;;;5.17;;
6513;SDS011;3290;47.716;9.070;2024-01-07T01:48:19;8.87;;;5.47;;
6513;SDS011;3290;47.716;9.070;2024-01-07T01:50:45;5.70;;;4.63;;
6513;SDS011;3290;47.716;9.070;2024-01-07T01:53:11;8.70;;;5.60;;
6513;SDS011;3290;47.716;9.070;2024-01-07T01:55:37;7.90;;;6.10;;
6513;SDS011;3290;47.716;9.070;2024-01-07T01:58:02;8.50;;;4.90;;
6513;SDS011;3290;47.716;9.070;2024-01-07T02:00:32;6.93;;;5.17;;
6513;SDS011;3290;47.716;9.070;2024-01-07T02:02:57;7.30;;;5.30;;
6513;SDS011;3290;47.716;9.070;2024-01-07T02:05:22;9.13;;;5.53;;
6513;SDS011;3290;47.716;9.070;2024-01-07T02:07:48;8.67;;;5.43;;
6513;SDS011;3290;47.716;9.070;2024-01-07T02:10:14;7.23;;;5.10;;
6513;SDS011;3290;47.716;9.070;2024-01-07T02:12:40;8.67;;;5.50;;
6513;SDS011;3290;47.716;9.070;2024-01-07T02:15:05;7.90;;;5.80;;
6513;SDS011;3290;47.716;9.070;2024-01-07T02:17:31;8.43;;;5.47;;
6513;SDS011;3290;47.716;9.070;2024-01-07T02:19:56;11.87;;;5.50;;
6513;SDS011;3290;47.716;9.070;2024-01-07T02:22:22;9.03;;;6.20;;
6513;SDS011;3290;47.716;9.070;2024-01-07T02:24:47;29.07;;;15.07;;
6513;SDS011;3290;47.716;9.070;2024-01-07T02:27:12;14.33;;;8.47;;
6513;SDS011;3290;47.716;9.070;2024-01-07T02:29:38;12.23;;;7.60;;
6513;SDS011;3290;47.716;9.070;2024-01-07T02:32:03;9.13;;;6.13;;
6513;SDS011;3290;47.716;9.070;2024-01-07T02:34:29;8.63;;;5.73;;
6513;SDS011;3290;47.716;9.070;2024-01-07T02:36:54;5.87;;;4.90;;
6513;SDS011;3290;47.716;9.070;2024-01-07T02:39:19;8.80;;;5.87;;
6513;SDS011;3290;47.716;9.070;2024-01-07T02:41:45;7.50;;;5.87;;
6513;SDS011;3290;47.716;9.070;2024-01-07T02:44:10;8.17;;;5.33;;
6513;SDS011;3290;47.716;9.070;2024-01-07T02:46:36;8.93;;;5.60;;
6513;SDS011;3290;47.716;9.070;2024-01-07T02:49:01;8.50;;;5.37;;
6513;SDS011;3290;47.716;9.070;2024-01-07T02:51:26;8.00;;;5.40;;
6513;SDS011;3290;47.716;9.070;2024-01-07T02:53:52;7.60;;;5.57;;
6513;SDS011;3290;47.716;9.070;2024-01-07T02:56:17;7.20;;;5.10;;
6513;SDS011;3290;47.716;9.070;2024-01-07T02:58:42;6.37;;;5.13;;
6513;SDS011;3290;47.716;9.070;2024-01-07T03:01:08;6.90;;;4.40;;
6513;SDS011;3290;47.716;9.070;2024-01-07T03:03:37;10.03;;;6.10;;
6513;SDS011;3290;47.716;9.070;2024-01-07T03:06:02;8.57;;;5.70;;
6513;SDS011;3290;47.716;9.070;2024-01-07T03:08:28;6.83;;;5.23;;
6513;SDS011;3290;47.716;9.070;2024-01-07T03:10:53;6.33;;;4.63;;
6513;SDS011;3290;47.716;9.070;2024-01-07T03:13:19;9.63;;;5.47;;
6513;SDS011;3290;47.716;9.070;2024-01-07T03:15:44;6.13;;;5.23;;
6513;SDS011;3290;47.716;9.070;2024-01-07T03:18:10;6.47;;;4.97;;
6513;SDS011;3290;47.716;9.070;2024-01-07T03:20:35;9.00;;;5.80;;
6513;SDS011;3290;47.716;9.070;2024-01-07T03:23:00;8.73;;;5.77;;
6513;SDS011;3290;47.716;9.070;2024-01-07T03:25:26;6.80;;;4.70;;
6513;SDS011;3290;47.716;9.070;2024-01-07T03:27:51;7.73;;;5.30;;
6513;SDS011;3290;47.716;9.070;2024-01-07T03:30:17;10.93;;;6.20;;
6513;SDS011;3290;47.716;9.070;2024-01-07T03:32:42;11.13;;;5.80;;
6513;SDS011;3290;47.716;9.070;2024-01-07T03:35:07;7.27;;;5.10;;
6513;SDS011;3290;47.716;9.070;2024-01-07T03:37:36;6.77;;;5.20;;
6513;SDS011;3290;47.716;9.070;2024-01-07T03:40:01;8.60;;;5.90;;
6513;SDS011;3290;47.716;9.070;2024-01-07T03:42:26;8.03;;;5.60;;
6513;SDS011;3290;47.716;9.070;2024-01-07T03:44:52;9.17;;;6.37;;
6513;SDS011;3290;47.716;9.070;2024-01-07T03:47:17;10.00;;;5.87;;
6513;SDS011;3290;47.716;9.070;2024-01-07T03:49:43;10.20;;;6.23;;
6513;SDS011;3290;47.716;9.070;2024-01-07T03:52:08;7.70;;;6.00;;
6513;SDS011;3290;47.716;9.070;2024-01-07T03:54:33;7.40;;;4.97;;
6513;SDS011;3290;47.716;9.070;2024-01-07T03:56:59;8.50;;;5.80;;
6513;SDS011;3290;47.716;9.070;2024-01-07T03:59:25;8.30;;;5.60;;
6513;SDS011;3290;47.716;9.070;2024-01-07T04:01:54;7.20;;;5.27;;
6513;SDS011;3290;47.716;9.070;2024-01-07T04:04:20;7.10;;;5.10;;
6513;SDS011;3290;47.716;9.070;2024-01-07T04:06:46;7.73;;;5.23;;
6513;SDS011;3290;47.716;9.070;2024-01-07T04:09:11;10.20;;;4.53;;
6513;SDS011;3290;47.716;9.070;2024-01-07T04:11:40;6.90;;;5.27;;
6513;SDS011;3290;47.716;9.070;2024-01-07T04:14:06;7.57;;;5.80;;
6513;SDS011;3290;47.716;9.070;2024-01-07T04:16:31;8.33;;;5.97;;
6513;SDS011;3290;47.716;9.070;2024-01-07T04:18:57;7.20;;;5.23;;
6513;SDS011;3290;47.716;9.070;2024-01-07T04:21:22;8.30;;;5.43;;
6513;SDS011;3290;47.716;9.070;2024-01-07T04:23:47;8.27;;;6.27;;
6513;SDS011;3290;47.716;9.070;2024-01-07T04:26:13;7.47;;;5.93;;
6513;SDS011;3290;47.716;9.070;2024-01-07T04:28:40;7.77;;;5.17;;
6513;SDS011;3290;47.716;9.070;2024-01-07T04:31:07;7.30;;;5.20;;
6513;SDS011;3290;47.716;9.070;2024-01-07T04:33:33;9.90;;;6.27;;
6513;SDS011;3290;47.716;9.070;2024-01-07T04:35:58;8.17;;;5.83;;
6513;SDS011;3290;47.716;9.070;2024-01-07T04:38:25;7.53;;;5.57;;
6513;SDS011;3290;47.716;9.070;2024-01-07T04:40:51;9.87;;;5.33;;
6513;SDS011;3290;47.716;9.070;2024-01-07T04:43:20;6.57;;;5.00;;
6513;SDS011;3290;47.716;9.070;2024-01-07T04:45:45;9.97;;;5.70;;
6513;SDS011;3290;47.716;9.070;2024-01-07T04:48:12;8.00;;;5.73;;
6513;SDS011;3290;47.716;9.070;2024-01-07T04:50:38;7.67;;;5.73;;
6513;SDS011;3290;47.716;9.070;2024-01-07T04:53:07;9.10;;;5.90;;
6513;SDS011;3290;47.716;9.070;2024-01-07T04:55:33;7.70;;;5.53;;
6513;SDS011;3290;47.716;9.070;2024-01-07T04:57:59;16.43;;;5.90;;
6513;SDS011;3290;47.716;9.070;2024-01-07T05:00:24;7.47;;;5.33;;
6513;SDS011;3290;47.716;9.070;2024-01-07T05:02:50;7.97;;;5.73;;
6513;SDS011;3290;47.716;9.070;2024-01-07T05:05:15;10.10;;;5.37;;
6513;SDS011;3290;47.716;9.070;2024-01-07T05:07:40;9.83;;;6.30;;
6513;SDS011;3290;47.716;9.070;2024-01-07T05:10:07;10.67;;;5.80;;
6513;SDS011;3290;47.716;9.070;2024-01-07T05:12:32;8.70;;;5.73;;
6513;SDS011;3290;47.716;9.070;2024-01-07T05:14:58;8.40;;;5.17;;
6513;SDS011;3290;47.716;9.070;2024-01-07T05:17:23;9.20;;;5.17;;
6513;SDS011;3290;47.716;9.070;2024-01-07T05:19:48;9.70;;;6.57;;
6513;SDS011;3290;47.716;9.070;2024-01-07T05:22:14;10.77;;;6.70;;
6513;SDS011;3290;47.716;9.070;2024-01-07T05:24:39;13.27;;;7.20;;
6513;SDS011;3290;47.716;9.070;2024-01-07T05:27:05;10.03;;;5.50;;
6513;SDS011;3290;47.716;9.070;2024-01-07T05:29:31;10.20;;;6.27;;
6513;SDS011;3290;47.716;9.070;2024-01-07T05:31:58;8.60;;;5.53;;
6513;SDS011;3290;47.716;9.070;2024-01-07T05:34:25;10.40;;;6.60;;
6513;SDS011;3290;47.716;9.070;2024-01-07T05:36:51;12.50;;;7.40;;
6513;SDS011;3290;47.716;9.070;2024-01-07T05:39:16;8.30;;;6.20;;
6513;SDS011;3290;47.716;9.070;2024-01-07T05:41:41;7.83;;;5.93;;
6513;SDS011;3290;47.716;9.070;2024-01-07T05:44:07;11.73;;;6.60;;
6513;SDS011;3290;47.716;9.070;2024-01-07T05:46:33;11.27;;;6.23;;
6513;SDS011;3290;47.716;9.070;2024-01-07T05:48:58;9.33;;;6.50;;
6513;SDS011;3290;47.716;9.070;2024-01-07T05:51:24;10.00;;;7.60;;
6513;SDS011;3290;47.716;9.070;2024-01-07T05:53:49;7.10;;;5.50;;
6513;SDS011;3290;47.716;9.070;2024-01-07T05:56:15;10.07;;;6.43;;
6513;SDS011;3290;47.716;9.070;2024-01-07T05:58:40;11.27;;;7.73;;
6513;SDS011;3290;47.716;9.070;2024-01-07T06:01:06;9.90;;;6.60;;
6513;SDS011;3290;47.716;9.070;2024-01-07T06:03:34;10.40;;;6.53;;
6513;SDS011;3290;47.716;9.070;2024-01-07T06:05:59;11.10;;;8.40;;
6513;SDS011;3290;47.716;9.070;2024-01-07T06:08:26;12.60;;;9.13;;
6513;SDS011;3290;47.716;9.070;2024-01-07T06:10:51;15.03;;;8.50;;
6513;SDS011;3290;47.716;9.070;2024-01-07T06:13:16;9.57;;;6.23;;
6513;SDS011;3290;47.716;9.070;2024-01-07T06:15:42;10.27;;;6.70;;
6513;SDS011;3290;47.716;9.070;2024-01-07T06:18:07;8.50;;;5.80;;
6513;SDS011;3290;47.716;9.070;2024-01-07T06:20:32;9.53;;;6.43;;
6513;SDS011;3290;47.716;9.070;2024-01-07T06:22:58;12.00;;;6.77;;
6513;SDS011;3290;47.716;9.070;2024-01-07T06:25:23;50.97;;;21.20;;
6513;SDS011;3290;47.716;9.070;2024-01-07T06:27:51;37.10;;;18.13;;
6513;SDS011;3290;47.716;9.070;2024-01-07T06:30:16;33.23;;;16.73;;
6513;SDS011;3290;47.716;9.070;2024-01-07T06:32:44;22.80;;;12.10;;
6513;SDS011;3290;47.716;9.070;2024-01-07T06:35:09;15.60;;;9.37;;
6513;SDS011;3290;47.716;9.070;2024-01-07T06:37:34;20.63;;;11.30;;
6513;SDS011;3290;47.716;9.070;2024-01-07T06:40:00;18.20;;;9.30;;
6513;SDS011;3290;47.716;9.070;2024-01-07T06:42:25;13.60;;;8.23;;
6513;SDS011;3290;47.716;9.070;2024-01-07T06:44:51;17.87;;;8.80;;
6513;SDS011;3290;47.716;9.070;2024-01-07T06:47:17;13.70;;;8.20;;
6513;SDS011;3290;47.716;9.070;2024-01-07T06:49:42;10.10;;;6.53;;
6513;SDS011;3290;47.716;9.070;2024-01-07T06:52:07;11.03;;;6.87;;
6513;SDS011;3290;47.716;9.070;2024-01-07T06:54:33;9.60;;;6.43;;
6513;SDS011;3290;47.716;9.070;2024-01-07T06:56:58;13.00;;;7.60;;
6513;SDS011;3290;47.716;9.070;2024-01-07T06:59:23;10.83;;;7.07;;
6513;SDS011;3290;47.716;9.070;2024-01-07T07:01:49;10.23;;;6.73;;
6513;SDS011;3290;47.716;9.070;2024-01-07T07:04:14;14.20;;;8.27;;
6513;SDS011;3290;47.716;9.070;2024-01-07T07:06:39;18.53;;;10.07;;
6513;SDS011;3290;47.716;9.070;2024-01-07T07:09:05;14.40;;;9.13;;
6513;SDS011;3290;47.716;9.070;2024-01-07T07:11:31;18.07;;;9.50;;
6513;SDS011;3290;47.716;9.070;2024-01-07T07:13:57;14.77;;;8.20;;
6513;SDS011;3290;47.716;9.070;2024-01-07T07:16:22;11.07;;;7.47;;
6513;SDS011;3290;47.716;9.070;2024-01-07T07:18:48;16.43;;;9.90;;
6513;SDS011;3290;47.716;9.070;2024-01-07T07:21:13;12.30;;;7.90;;
6513;SDS011;3290;47.716;9.070;2024-01-07T07:23:38;12.17;;;7.20;;
6513;SDS011;3290;47.716;9.070;2024-01-07T07:26:03;13.67;;;9.50;;
6513;SDS011;3290;47.716;9.070;2024-01-07T07:28:30;9.80;;;6.77;;
6513;SDS011;3290;47.716;9.070;2024-01-07T07:30:55;8.33;;;5.83;;
6513;SDS011;3290;47.716;9.070;2024-01-07T07:33:21;16.70;;;7.90;;
6513;SDS011;3290;47.716;9.070;2024-01-07T07:35:46;12.53;;;7.67;;
6513;SDS011;3290;47.716;9.070;2024-01-07T07:38:11;35.90;;;16.10;;
6513;SDS011;3290;47.716;9.070;2024-01-07T07:40:37;26.63;;;15.17;;
6513;SDS011;3290;47.716;9.070;2024-01-07T07:43:02;21.57;;;11.47;;
6513;SDS011;3290;47.716;9.070;2024-01-07T07:45:27;21.40;;;10.23;;
6513;SDS011;3290;47.716;9.070;2024-01-07T07:47:53;10.60;;;7.13;;
6513;SDS011;3290;47.716;9.070;2024-01-07T07:50:18;10.07;;;6.57;;
6513;SDS011;3290;47.716;9.070;2024-01-07T07:52:44;12.27;;;7.40;;
6513;SDS011;3290;47.716;9.070;2024-01-07T07:55:09;13.40;;;7.73;;
6513;SDS011;3290;47.716;9.070;2024-01-07T07:57:35;15.73;;;9.80;;
6513;SDS011;3290;47.716;9.070;2024-01-07T08:00:03;10.07;;;6.70;;
6513;SDS011;3290;47.716;9.070;2024-01-07T08:02:30;12.80;;;7.27;;
6513;SDS011;3290;47.716;9.070;2024-01-07T08:04:55;14.30;;;8.53;;
6513;SDS011;3290;47.716;9.070;2024-01-07T08:07:20;15.83;;;9.67;;
6513;SDS011;3290;47.716;9.070;2024-01-07T08:09:46;14.13;;;9.23;;
6513;SDS011;3290;47.716;9.070;2024-01-07T08:12:12;15.53;;;9.40;;
6513;SDS011;3290;47.716;9.070;2024-01-07T08:14:38;11.80;;;8.77;;
6513;SDS011;3290;47.716;9.070;2024-01-07T08:17:06;11.90;;;7.37;;
6513;SDS011;3290;47.716;9.070;2024-01-07T08:19:32;10.23;;;7.30;;
6513;SDS011;3290;47.716;9.070;2024-01-07T08:21:57;15.03;;;7.97;;
6513;SDS011;3290;47.716;9.070;2024-01-07T08:24:23;11.60;;;8.00;;
6513;SDS011;3290;47.716;9.070;2024-01-07T08:26:48;9.60;;;7.27;;
6513;SDS011;3290;47.716;9.070;2024-01-07T08:29:13;9.07;;;6.80;;
6513;SDS011;3290;47.716;9.070;2024-01-07T08:31:39;10.90;;;7.10;;
6513;SDS011;3290;47.716;9.070;2024-01-07T08:34:07;10.67;;;7.97;;
6513;SDS011;3290;47.716;9.070;2024-01-07T08:36:32;9.30;;;6.50;;
6513;SDS011;3290;47.716;9.070;2024-01-07T08:38:58;10.67;;;6.87;;
6513;SDS011;3290;47.716;9.070;2024-01-07T08:41:25;9.17;;;6.43;;
6513;SDS011;3290;47.716;9.070;2024-01-07T08:43:50;13.20;;;6.03;;
6513;SDS011;3290;47.716;9.070;2024-01-07T08:46:16;8.00;;;5.87;;
6513;SDS011;3290;47.716;9.070;2024-01-07T08:48:41;8.97;;;5.87;;
6513;SDS011;3290;47.716;9.070;2024-01-07T08:51:07;8.10;;;6.03;;
6513;SDS011;3290;47.716;9.070;2024-01-07T08:53:32;10.10;;;6.00;;
6513;SDS011;3290;47.716;9.070;2024-01-07T08:55:58;9.47;;;6.30;;
6513;SDS011;3290;47.716;9.070;2024-01-07T08:58:23;8.80;;;6.80;;
6513;SDS011;3290;47.716;9.070;2024-01-07T09:00:49;10.23;;;7.03;;
6513;SDS011;3290;47.716;9.070;2024-01-07T09:03:14;10.80;;;7.20;;
6513;SDS011;3290;47.716;9.070;2024-01-07T09:05:39;8.13;;;5.90;;
6513;SDS011;3290;47.716;9.070;2024-01-07T09:08:05;8.30;;;4.87;;
6513;SDS011;3290;47.716;9.070;2024-01-07T09:10:31;8.03;;;5.60;;
6513;SDS011;3290;47.716;9.070;2024-01-07T09:12:58;8.93;;;5.40;;
6513;SDS011;3290;47.716;9.070;2024-01-07T09:15:24;7.07;;;4.80;;
6513;SDS011;3290;47.716;9.070;2024-01-07T09:17:50;8.63;;;6.17;;
6513;SDS011;3290;47.716;9.070;2024-01-07T09:20:15;9.90;;;6.50;;
6513;SDS011;3290;47.716;9.070;2024-01-07T09:22:41;8.27;;;5.40;;
6513;SDS011;3290;47.716;9.070;2024-01-07T09:25:08;6.87;;;4.90;;
6513;SDS011;3290;47.716;9.070;2024-01-07T09:27:34;5.17;;;4.30;;
6513;SDS011;3290;47.716;9.070;2024-01-07T09:29:59;6.17;;;4.70;;
6513;SDS011;3290;47.716;9.070;2024-01-07T09:32:26;4.80;;;4.30;;
6513;SDS011;3290;47.716;9.070;2024-01-07T09:34:51;5.20;;;4.50;;
6513;SDS011;3290;47.716;9.070;2024-01-07T09:37:17;9.27;;;5.67;;
6513;SDS011;3290;47.716;9.070;2024-01-07T09:39:42;7.13;;;5.40;;
6513;SDS011;3290;47.716;9.070;2024-01-07T09:42:12;12.73;;;7.07;;
6513;SDS011;3290;47.716;9.070;2024-01-07T09:44:43;7.87;;;5.47;;
6513;SDS011;3290;47.716;9.070;2024-01-07T09:47:12;8.20;;;5.70;;
6513;SDS011;3290;47.716;9.070;2024-01-07T09:49:39;5.57;;;4.63;;
6513;SDS011;3290;47.716;9.070;2024-01-07T09:52:05;6.60;;;4.50;;
6513;SDS011;3290;47.716;9.070;2024-01-07T09:54:32;8.00;;;5.57;;
6513;SDS011;3290;47.716;9.070;2024-01-07T09:57:02;8.80;;;6.20;;
6513;SDS011;3290;47.716;9.070;2024-01-07T09:59:28;10.30;;;6.10;;
6513;SDS011;3290;47.716;9.070;2024-01-07T10:01:55;7.70;;;4.87;;
6513;SDS011;3290;47.716;9.070;2024-01-07T10:04:21;6.37;;;5.13;;
6513;SDS011;3290;47.716;9.070;2024-01-07T10:06:47;6.70;;;4.13;;
6513;SDS011;3290;47.716;9.070;2024-01-07T10:09:14;5.93;;;4.70;;
6513;SDS011;3290;47.716;9.070;2024-01-07T10:11:40;6.13;;;4.60;;
6513;SDS011;3290;47.716;9.070;2024-01-07T10:14:05;7.97;;;5.33;;
6513;SDS011;3290;47.716;9.070;2024-01-07T10:16:31;8.83;;;5.00;;
6513;SDS011;3290;47.716;9.070;2024-01-07T10:18:58;5.70;;;4.67;;
6513;SDS011;3290;47.716;9.070;2024-01-07T10:21:23;7.30;;;5.40;;
6513;SDS011;3290;47.716;9.070;2024-01-07T10:23:49;5.33;;;4.40;;
6513;SDS011;3290;47.716;9.070;2024-01-07T10:26:15;7.53;;;4.97;;
6513;SDS011;3290;47.716;9.070;2024-01-07T10:28:41;7.93;;;5.60;;
6513;SDS011;3290;47.716;9.070;2024-01-07T10:31:08;7.80;;;5.57;;
6513;SDS011;3290;47.716;9.070;2024-01-07T10:33:34;4.27;;;3.87;;
6513;SDS011;3290;47.716;9.070;2024-01-07T10:36:03;8.47;;;5.20;;
6513;SDS011;3290;47.716;9.070;2024-01-07T10:38:31;6.70;;;5.73;;
6513;SDS011;3290;47.716;9.070;2024-01-07T10:40:59;8.67;;;5.33;;
6513;SDS011;3290;47.716;9.070;2024-01-07T10:43:26;6.00;;;4.80;;
6513;SDS011;3290;47.716;9.070;2024-01-07T10:45:54;7.20;;;5.70;;
6513;SDS011;3290;47.716;9.070;2024-01-07T10:48:20;8.70;;;6.33;;
6513;SDS011;3290;47.716;9.070;2024-01-07T10:50:46;7.93;;;5.93;;
6513;SDS011;3290;47.716;9.070;2024-01-07T10:53:17;6.40;;;5.20;;
6513;SDS011;3290;47.716;9.070;2024-01-07T10:56:03;9.20;;;6.43;;
6513;SDS011;3290;47.716;9.070;2024-01-07T10:58:31;11.57;;;5.70;;
6513;SDS011;3290;47.716;9.070;2024-01-07T11:00:59;10.47;;;5.40;;
6513;SDS011;3290;47.716;9.070;2024-01-07T11:03:31;5.80;;;5.20;;
6513;SDS011;3290;47.716;9.070;2024-01-07T11:06:04;7.50;;;6.40;;
6513;SDS011;3290;47.716;9.070;2024-01-07T11:08:44;10.90;;;7.40;;
6513;SDS011;3290;47.716;9.070;2024-01-07T11:11:22;11.73;;;7.73;;
6513;SDS011;3290;47.716;9.070;2024-01-07T11:13:52;8.90;;;6.77;;
6513;SDS011;3290;47.716;9.070;2024-01-07T11:16:59;9.30;;;6.50;;
6513;SDS011;3290;47.716;9.070;2024-01-07T11:19:06;6.73;;;5.10;;
6513;SDS011;3290;47.716;9.070;2024-01-07T11:21:31;10.90;;;6.90;;
6513;SDS011;3290;47.716;9.070;2024-01-07T11:23:57;7.90;;;5.87;;
6513;SDS011;3290;47.716;9.070;2024-01-07T11:26:22;10.50;;;7.97;;
6513;SDS011;3290;47.716;9.070;2024-01-07T11:28:49;11.43;;;8.77;;
6513;SDS011;3290;47.716;9.070;2024-01-07T11:31:19;9.17;;;7.40;;
6513;SDS011;3290;47.716;9.070;2024-01-07T11:33:46;12.43;;;7.80;;
6513;SDS011;3290;47.716;9.070;2024-01-07T11:36:15;9.80;;;8.37;;
6513;SDS011;3290;47.716;9.070;2024-01-07T11:38:47;8.17;;;7.13;;
6513;SDS011;3290;47.716;9.070;2024-01-07T11:41:14;12.27;;;8.90;;
6513;SDS011;3290;47.716;9.070;2024-01-07T11:46:36;9.17;;;7.23;;
6513;SDS011;3290;47.716;9.070;2024-01-07T11:49:02;7.40;;;6.17;;
6513;SDS011;3290;47.716;9.070;2024-01-07T11:51:28;11.40;;;7.73;;
6513;SDS011;3290;47.716;9.070;2024-01-07T11:53:55;10.53;;;6.13;;
6513;SDS011;3290;47.716;9.070;2024-01-07T11:56:22;8.53;;;6.60;;
6513;SDS011;3290;47.716;9.070;2024-01-07T11:58:47;10.60;;;7.40;;
6513;SDS011;3290;47.716;9.070;2024-01-07T12:01:14;8.77;;;7.20;;
6513;SDS011;3290;47.716;9.070;2024-01-07T12:03:41;11.07;;;7.80;;
6513;SDS011;3290;47.716;9.070;2024-01-07T12:06:08;9.67;;;7.40;;
6513;SDS011;3290;47.716;9.070;2024-01-07T12:08:38;9.40;;;6.87;;
6513;SDS011;3290;47.716;9.070;2024-01-07T12:11:04;8.30;;;5.80;;
6513;SDS011;3290;47.716;9.070;2024-01-07T12:13:30;17.87;;;9.37;;
6513;SDS011;3290;47.716;9.070;2024-01-07T12:15:56;14.70;;;8.37;;
6513;SDS011;3290;47.716;9.070;2024-01-07T12:18:22;10.63;;;7.07;;
6513;SDS011;3290;47.716;9.070;2024-01-07T12:20:56;10.03;;;7.10;;
6513;SDS011;3290;47.716;9.070;2024-01-07T12:23:23;10.67;;;6.87;;
6513;SDS011;3290;47.716;9.070;2024-01-07T12:25:48;8.17;;;6.00;;
6513;SDS011;3290;47.716;9.070;2024-01-07T12:28:14;12.53;;;7.37;;
6513;SDS011;3290;47.716;9.070;2024-01-07T12:30:42;11.90;;;7.50;;
6513;SDS011;3290;47.716;9.070;2024-01-07T12:33:07;9.00;;;6.37;;
6513;SDS011;3290;47.716;9.070;2024-01-07T12:35:33;10.70;;;6.60;;
6513;SDS011;3290;47.716;9.070;2024-01-07T12:37:59;10.90;;;7.67;;
6513;SDS011;3290;47.716;9.070;2024-01-07T12:40:25;11.23;;;7.50;;
6513;SDS011;3290;47.716;9.070;2024-01-07T12:42:52;9.40;;;6.20;;
6513;SDS011;3290;47.716;9.070;2024-01-07T12:45:17;8.50;;;5.77;;
6513;SDS011;3290;47.716;9.070;2024-01-07T12:47:43;11.50;;;7.27;;
6513;SDS011;3290;47.716;9.070;2024-01-07T12:50:09;10.43;;;6.70;;
6513;SDS011;3290;47.716;9.070;2024-01-07T12:52:36;8.70;;;6.60;;
6513;SDS011;3290;47.716;9.070;2024-01-07T12:55:03;14.30;;;6.77;;
6513;SDS011;3290;47.716;9.070;2024-01-07T12:57:29;10.80;;;7.10;;
6513;SDS011;3290;47.716;9.070;2024-01-07T12:59:54;7.63;;;5.77;;
6513;SDS011;3290;47.716;9.070;2024-01-07T13:02:20;11.67;;;7.30;;
6513;SDS011;3290;47.716;9.070;2024-01-07T13:04:45;9.93;;;6.90;;
6513;SDS011;3290;47.716;9.070;2024-01-07T13:07:11;8.60;;;6.23;;
6513;SDS011;3290;47.716;9.070;2024-01-07T13:09:36;11.33;;;5.90;;
6513;SDS011;3290;47.716;9.070;2024-01-07T13:12:02;9.07;;;6.30;;
6513;SDS011;3290;47.716;9.070;2024-01-07T13:14:29;9.10;;;6.63;;
6513;SDS011;3290;47.716;9.070;2024-01-07T13:16:54;10.13;;;6.47;;
6513;SDS011;3290;47.716;9.070;2024-01-07T13:19:20;10.00;;;5.80;;
6513;SDS011;3290;47.716;9.070;2024-01-07T13:21:45;8.73;;;6.03;;
6513;SDS011;3290;47.716;9.070;2024-01-07T13:24:11;9.40;;;5.60;;
6513;SDS011;3290;47.716;9.070;2024-01-07T13:26:36;11.77;;;7.20;;
6513;SDS011;3290;47.716;9.070;2024-01-07T13:29:02;9.87;;;7.00;;
6513;SDS011;3290;47.716;9.070;2024-01-07T13:31:28;11.17;;;6.20;;
6513;SDS011;3290;47.716;9.070;2024-01-07T13:33:54;8.90;;;6.10;;
6513;SDS011;3290;47.716;9.070;2024-01-07T13:36:19;13.63;;;8.43;;
6513;SDS011;3290;47.716;9.070;2024-01-07T13:38:45;9.37;;;6.47;;
6513;SDS011;3290;47.716;9.070;2024-01-07T13:41:13;13.50;;;8.10;;
6513;SDS011;3290;47.716;9.070;2024-01-07T13:43:39;10.53;;;8.00;;
6513;SDS011;3290;47.716;9.070;2024-01-07T13:46:05;9.20;;;6.17;;
6513;SDS011;3290;47.716;9.070;2024-01-07T13:48:31;10.17;;;6.60;;
6513;SDS011;3290;47.716;9.070;2024-01-07T13:50:56;15.17;;;8.43;;
6513;SDS011;3290;47.716;9.070;2024-01-07T13:53:23;12.70;;;7.70;;
6513;SDS011;3290;47.716;9.070;2024-01-07T13:55:48;15.73;;;7.60;;
6513;SDS011;3290;47.716;9.070;2024-01-07T13:58:14;11.50;;;7.33;;
6513;SDS011;3290;47.716;9.070;2024-01-07T14:00:40;13.30;;;8.47;;
6513;SDS011;3290;47.716;9.070;2024-01-07T14:03:06;9.37;;;6.80;;
6513;SDS011;3290;47.716;9.070;2024-01-07T14:05:32;8.73;;;6.00;;
6513;SDS011;3290;47.716;9.070;2024-01-07T14:07:57;10.50;;;6.97;;
6513;SDS011;3290;47.716;9.070;2024-01-07T14:10:23;12.40;;;8.00;;
6513;SDS011;3290;47.716;9.070;2024-01-07T14:12:48;9.40;;;6.47;;
6513;SDS011;3290;47.716;9.070;2024-01-07T14:15:13;8.43;;;6.53;;
6513;SDS011;3290;47.716;9.070;2024-01-07T14:17:39;10.30;;;6.17;;
6513;SDS011;3290;47.716;9.070;2024-01-07T14:20:07;9.17;;;5.57;;
6513;SDS011;3290;47.716;9.070;2024-01-07T14:22:33;8.80;;;5.93;;
6513;SDS011;3290;47.716;9.070;2024-01-07T14:24:58;7.70;;;6.10;;
6513;SDS011;3290;47.716;9.070;2024-01-07T14:27:23;11.80;;;7.27;;
6513;SDS011;3290;47.716;9.070;2024-01-07T14:29:49;8.67;;;5.20;;
6513;SDS011;3290;47.716;9.070;2024-01-07T14:32:14;8.50;;;5.63;;
6513;SDS011;3290;47.716;9.070;2024-01-07T14:34:40;14.07;;;7.50;;
6513;SDS011;3290;47.716;9.070;2024-01-07T14:37:07;7.70;;;6.00;;
6513;SDS011;3290;47.716;9.070;2024-01-07T14:39:35;7.27;;;5.23;;
6513;SDS011;3290;47.716;9.070;2024-01-07T14:42:04;10.50;;;6.50;;
6513;SDS011;3290;47.716;9.070;2024-01-07T14:44:29;17.60;;;9.80;;
6513;SDS011;3290;47.716;9.070;2024-01-07T14:46:55;15.57;;;9.40;;
6513;SDS011;3290;47.716;9.070;2024-01-07T14:49:21;13.17;;;6.70;;
6513;SDS011;3290;47.716;9.070;2024-01-07T14:51:46;13.63;;;6.73;;
6513;SDS011;3290;47.716;9.070;2024-01-07T14:54:12;8.67;;;6.30;;
6513;SDS011;3290;47.716;9.070;2024-01-07T14:56:38;12.90;;;5.67;;
6513;SDS011;3290;47.716;9.070;2024-01-07T14:59:04;10.53;;;6.70;;
6513;SDS011;3290;47.716;9.070;2024-01-07T15:01:30;11.13;;;7.27;;
6513;SDS011;3290;47.716;9.070;2024-01-07T15:03:55;9.77;;;6.10;;
6513;SDS011;3290;47.716;9.070;2024-01-07T15:06:20;7.93;;;5.13;;